sensor_id;sensor_type;location;lat;lon;timestamp;P1;durP1;ratioP1;P2;durP2;ratioP2
14092;SDS011;7123;49.468;10.992;2023-04-06T00:01:10;10.13;;;7.20;;
14092;SDS011;7123;49.468;10.992;2023-04-06T00:03:37;9.80;;;7.13;;
14092;SDS011;7123;49.468;10.992;2023-04-06T00:06:05;10.60;;;6.83;;
14092;SDS011;7123;49.468;10.992;2023-04-06T00:08:32;9.27;;;6.90;;
14092;SDS011;7123;49.468;10.992;2023-04-06T00:10:59;11.47;;;7.23;;
14092;SDS011;7123;49.468;10.992;2023-04-06T00:13:27;9.47;;;6.70;;
14092;SDS011;7123;49.468;10.992;2023-04-06T00:15:54;8.47;;;6.60;;
14092;SDS011;7123;49.468;10.992;2023-04-06T00:18:22;10.13;;;7.23;;
14092;SDS011;7123;49.468;10.992;2023-04-06T00:20:49;10.43;;;7.20;;
14092;SDS011;7123;49.468;10.992;2023-04-06T00:23:17;9.53;;;6.70;;
14092;SDS011;7123;49.468;10.992;2023-04-06T00:25:44;10.13;;;6.97;;
14092;SDS011;7123;49.468;10.992;2023-04-06T00:28:11;11.07;;;6.80;;
14092;SDS011;7123;49.468;10.992;2023-04-06T00:30:38;9.10;;;6.87;;
14092;SDS011;7123;49.468;10.992;2023-04-06T00:33:05;9.77;;;7.23;;
14092;SDS011;7123;49.468;10.992;2023-04-06T00:35:32;9.63;;;6.90;;
14092;SDS011;7123;49.468;10.992;2023-04-06T00:37:59;9.40;;;7.07;;
14092;SDS011;7123;49.468;10.992;2023-04-06T00:40:26;10.23;;;6.87;;
14092;SDS011;7123;49.468;10.992;2023-04-06T00:42:54;9.03;;;6.53;;
14092;SDS011;7123;49.468;10.992;2023-04-06T00:45:22;10.37;;;6.93;;
14092;SDS011;7123;49.468;10.992;2023-04-06T00:47:48;10.17;;;6.70;;
14092;SDS011;7123;49.468;10.992;2023-04-06T00:50:16;8.10;;;6.67;;
14092;SDS011;7123;49.468;10.992;2023-04-06T00:52:43;10.37;;;7.07;;
14092;SDS011;7123;49.468;10.992;2023-04-06T00:55:09;7.63;;;6.83;;
14092;SDS011;7123;49.468;10.992;2023-04-06T00:57:36;8.27;;;6.60;;
14092;SDS011;7123;49.468;10.992;2023-04-06T01:00:03;11.57;;;7.37;;
14092;SDS011;7123;49.468;10.992;2023-04-06T01:02:30;10.73;;;6.80;;
14092;SDS011;7123;49.468;10.992;2023-04-06T01:04:57;8.60;;;7.10;;
14092;SDS011;7123;49.468;10.992;2023-04-06T01:07:24;8.30;;;6.57;;
14092;SDS011;7123;49.468;10.992;2023-04-06T01:09:53;9.70;;;6.93;;
14092;SDS011;7123;49.468;10.992;2023-04-06T01:12:20;8.13;;;6.20;;
14092;SDS011;7123;49.468;10.992;2023-04-06T01:14:47;9.60;;;6.13;;
14092;SDS011;7123;49.468;10.992;2023-04-06T01:17:14;6.93;;;5.40;;
14092;SDS011;7123;49.468;10.992;2023-04-06T01:19:40;7.00;;;5.50;;
14092;SDS011;7123;49.468;10.992;2023-04-06T01:22:07;8.57;;;5.40;;
14092;SDS011;7123;49.468;10.992;2023-04-06T01:24:34;6.77;;;5.70;;
14092;SDS011;7123;49.468;10.992;2023-04-06T01:27:01;6.80;;;4.90;;
14092;SDS011;7123;49.468;10.992;2023-04-06T01:29:28;4.83;;;4.33;;
14092;SDS011;7123;49.468;10.992;2023-04-06T01:31:54;6.00;;;5.07;;
14092;SDS011;7123;49.468;10.992;2023-04-06T01:34:21;5.97;;;4.73;;
14092;SDS011;7123;49.468;10.992;2023-04-06T01:36:48;5.30;;;4.23;;
14092;SDS011;7123;49.468;10.992;2023-04-06T01:39:15;7.00;;;4.30;;
14092;SDS011;7123;49.468;10.992;2023-04-06T01:41:42;5.93;;;4.43;;
14092;SDS011;7123;49.468;10.992;2023-04-06T01:44:08;6.40;;;4.10;;
14092;SDS011;7123;49.468;10.992;2023-04-06T01:46:35;4.90;;;4.13;;
14092;SDS011;7123;49.468;10.992;2023-04-06T01:49:02;6.57;;;4.43;;
14092;SDS011;7123;49.468;10.992;2023-04-06T01:51:28;6.63;;;4.40;;
14092;SDS011;7123;49.468;10.992;2023-04-06T01:53:56;5.80;;;4.27;;
14092;SDS011;7123;49.468;10.992;2023-04-06T01:56:22;6.37;;;4.67;;
14092;SDS011;7123;49.468;10.992;2023-04-06T01:58:50;6.77;;;4.23;;
14092;SDS011;7123;49.468;10.992;2023-04-06T02:01:17;4.03;;;3.67;;
14092;SDS011;7123;49.468;10.992;2023-04-06T02:03:44;7.07;;;4.23;;
14092;SDS011;7123;49.468;10.992;2023-04-06T02:06:10;4.93;;;3.93;;
14092;SDS011;7123;49.468;10.992;2023-04-06T02:08:37;5.20;;;3.93;;
14092;SDS011;7123;49.468;10.992;2023-04-06T02:11:04;6.97;;;3.90;;
14092;SDS011;7123;49.468;10.992;2023-04-06T02:13:31;6.23;;;4.53;;
14092;SDS011;7123;49.468;10.992;2023-04-06T02:15:57;7.47;;;4.30;;
14092;SDS011;7123;49.468;10.992;2023-04-06T02:18:24;5.13;;;4.30;;
14092;SDS011;7123;49.468;10.992;2023-04-06T02:20:51;4.57;;;4.17;;
14092;SDS011;7123;49.468;10.992;2023-04-06T02:23:18;6.67;;;3.97;;
14092;SDS011;7123;49.468;10.992;2023-04-06T02:25:44;4.57;;;4.10;;
14092;SDS011;7123;49.468;10.992;2023-04-06T02:28:11;4.40;;;3.70;;
14092;SDS011;7123;49.468;10.992;2023-04-06T02:30:38;4.47;;;4.03;;
14092;SDS011;7123;49.468;10.992;2023-04-06T02:33:05;6.23;;;4.07;;
14092;SDS011;7123;49.468;10.992;2023-04-06T02:35:32;4.80;;;4.13;;
14092;SDS011;7123;49.468;10.992;2023-04-06T02:37:59;5.13;;;4.27;;
14092;SDS011;7123;49.468;10.992;2023-04-06T02:40:26;4.63;;;4.20;;
14092;SDS011;7123;49.468;10.992;2023-04-06T02:42:52;4.97;;;4.10;;
14092;SDS011;7123;49.468;10.992;2023-04-06T02:45:19;5.27;;;3.87;;
14092;SDS011;7123;49.468;10.992;2023-04-06T02:47:46;7.33;;;4.23;;
14092;SDS011;7123;49.468;10.992;2023-04-06T02:50:13;8.40;;;4.40;;
14092;SDS011;7123;49.468;10.992;2023-04-06T02:52:41;6.07;;;4.60;;
14092;SDS011;7123;49.468;10.992;2023-04-06T02:55:07;6.27;;;4.40;;
14092;SDS011;7123;49.468;10.992;2023-04-06T02:57:34;6.53;;;4.13;;
14092;SDS011;7123;49.468;10.992;2023-04-06T03:00:01;6.00;;;4.33;;
14092;SDS011;7123;49.468;10.992;2023-04-06T03:02:28;6.33;;;4.63;;
14092;SDS011;7123;49.468;10.992;2023-04-06T03:04:55;9.67;;;4.10;;
14092;SDS011;7123;49.468;10.992;2023-04-06T03:07:22;7.33;;;4.20;;
14092;SDS011;7123;49.468;10.992;2023-04-06T03:09:49;5.17;;;4.40;;
14092;SDS011;7123;49.468;10.992;2023-04-06T03:12:16;8.43;;;4.17;;
14092;SDS011;7123;49.468;10.992;2023-04-06T03:14:43;5.53;;;4.40;;
14092;SDS011;7123;49.468;10.992;2023-04-06T03:17:09;5.30;;;4.30;;
14092;SDS011;7123;49.468;10.992;2023-04-06T03:19:36;6.77;;;5.23;;
14092;SDS011;7123;49.468;10.992;2023-04-06T03:22:03;7.03;;;4.83;;
14092;SDS011;7123;49.468;10.992;2023-04-06T03:24:29;6.10;;;4.90;;
14092;SDS011;7123;49.468;10.992;2023-04-06T03:26:56;6.43;;;5.03;;
14092;SDS011;7123;49.468;10.992;2023-04-06T03:29:23;8.77;;;4.80;;
14092;SDS011;7123;49.468;10.992;2023-04-06T03:31:49;9.70;;;4.73;;
14092;SDS011;7123;49.468;10.992;2023-04-06T03:34:16;5.73;;;4.67;;
14092;SDS011;7123;49.468;10.992;2023-04-06T03:36:43;11.47;;;4.47;;
14092;SDS011;7123;49.468;10.992;2023-04-06T03:39:10;8.73;;;5.47;;
14092;SDS011;7123;49.468;10.992;2023-04-06T03:41:36;8.07;;;5.93;;
14092;SDS011;7123;49.468;10.992;2023-04-06T03:44:04;9.47;;;5.40;;
14092;SDS011;7123;49.468;10.992;2023-04-06T03:46:31;5.63;;;4.77;;
14092;SDS011;7123;49.468;10.992;2023-04-06T03:49:00;9.20;;;4.67;;
14092;SDS011;7123;49.468;10.992;2023-04-06T03:51:27;8.77;;;4.70;;
14092;SDS011;7123;49.468;10.992;2023-04-06T03:53:53;8.73;;;4.50;;
14092;SDS011;7123;49.468;10.992;2023-04-06T03:56:20;5.83;;;4.60;;
14092;SDS011;7123;49.468;10.992;2023-04-06T03:58:47;6.43;;;4.80;;
14092;SDS011;7123;49.468;10.992;2023-04-06T04:01:17;6.37;;;4.50;;
14092;SDS011;7123;49.468;10.992;2023-04-06T04:03:46;6.70;;;4.63;;
14092;SDS011;7123;49.468;10.992;2023-04-06T04:06:16;6.57;;;4.30;;
14092;SDS011;7123;49.468;10.992;2023-04-06T04:08:43;7.17;;;4.83;;
14092;SDS011;7123;49.468;10.992;2023-04-06T04:11:10;7.70;;;4.60;;
14092;SDS011;7123;49.468;10.992;2023-04-06T04:13:37;5.10;;;4.60;;
14092;SDS011;7123;49.468;10.992;2023-04-06T04:16:03;5.67;;;4.70;;
14092;SDS011;7123;49.468;10.992;2023-04-06T04:18:30;6.50;;;4.60;;
14092;SDS011;7123;49.468;10.992;2023-04-06T04:20:57;8.80;;;4.47;;
14092;SDS011;7123;49.468;10.992;2023-04-06T04:23:24;8.73;;;4.50;;
14092;SDS011;7123;49.468;10.992;2023-04-06T04:25:51;5.07;;;4.57;;
14092;SDS011;7123;49.468;10.992;2023-04-06T04:28:17;5.90;;;4.83;;
14092;SDS011;7123;49.468;10.992;2023-04-06T04:30:44;6.43;;;4.83;;
14092;SDS011;7123;49.468;10.992;2023-04-06T04:33:12;5.73;;;4.40;;
14092;SDS011;7123;49.468;10.992;2023-04-06T04:35:38;6.03;;;4.47;;
14092;SDS011;7123;49.468;10.992;2023-04-06T04:38:05;9.40;;;4.03;;
14092;SDS011;7123;49.468;10.992;2023-04-06T04:40:32;6.17;;;3.97;;
14092;SDS011;7123;49.468;10.992;2023-04-06T04:42:58;4.80;;;4.10;;
14092;SDS011;7123;49.468;10.992;2023-04-06T04:45:28;8.10;;;4.50;;
14092;SDS011;7123;49.468;10.992;2023-04-06T04:47:55;10.67;;;5.03;;
14092;SDS011;7123;49.468;10.992;2023-04-06T04:50:22;5.87;;;4.30;;
14092;SDS011;7123;49.468;10.992;2023-04-06T04:52:49;5.33;;;4.20;;
14092;SDS011;7123;49.468;10.992;2023-04-06T04:55:15;6.33;;;4.70;;
14092;SDS011;7123;49.468;10.992;2023-04-06T04:57:43;6.60;;;4.50;;
14092;SDS011;7123;49.468;10.992;2023-04-06T05:00:10;6.10;;;4.80;;
14092;SDS011;7123;49.468;10.992;2023-04-06T05:02:37;5.70;;;4.77;;
14092;SDS011;7123;49.468;10.992;2023-04-06T05:05:05;6.50;;;4.43;;
14092;SDS011;7123;49.468;10.992;2023-04-06T05:07:32;4.90;;;4.30;;
14092;SDS011;7123;49.468;10.992;2023-04-06T05:09:59;5.70;;;4.40;;
14092;SDS011;7123;49.468;10.992;2023-04-06T05:12:26;5.77;;;4.50;;
14092;SDS011;7123;49.468;10.992;2023-04-06T05:14:53;7.77;;;5.07;;
14092;SDS011;7123;49.468;10.992;2023-04-06T05:17:20;6.07;;;4.97;;
14092;SDS011;7123;49.468;10.992;2023-04-06T05:19:47;5.87;;;4.70;;
14092;SDS011;7123;49.468;10.992;2023-04-06T05:22:13;6.43;;;5.07;;
14092;SDS011;7123;49.468;10.992;2023-04-06T05:24:44;6.90;;;4.77;;
14092;SDS011;7123;49.468;10.992;2023-04-06T05:27:11;10.50;;;5.27;;
14092;SDS011;7123;49.468;10.992;2023-04-06T05:29:39;7.70;;;4.90;;
14092;SDS011;7123;49.468;10.992;2023-04-06T05:32:06;7.63;;;5.00;;
14092;SDS011;7123;49.468;10.992;2023-04-06T05:34:33;10.40;;;5.07;;
14092;SDS011;7123;49.468;10.992;2023-04-06T05:36:59;7.47;;;4.93;;
14092;SDS011;7123;49.468;10.992;2023-04-06T05:39:26;6.17;;;4.60;;
14092;SDS011;7123;49.468;10.992;2023-04-06T05:41:53;10.97;;;5.00;;
14092;SDS011;7123;49.468;10.992;2023-04-06T05:44:20;7.37;;;4.80;;
14092;SDS011;7123;49.468;10.992;2023-04-06T05:46:46;7.30;;;5.00;;
14092;SDS011;7123;49.468;10.992;2023-04-06T05:49:13;10.13;;;4.63;;
14092;SDS011;7123;49.468;10.992;2023-04-06T05:51:40;6.33;;;5.03;;
14092;SDS011;7123;49.468;10.992;2023-04-06T05:54:06;5.60;;;4.60;;
14092;SDS011;7123;49.468;10.992;2023-04-06T05:56:33;6.40;;;4.67;;
14092;SDS011;7123;49.468;10.992;2023-04-06T05:59:00;7.73;;;4.93;;
14092;SDS011;7123;49.468;10.992;2023-04-06T06:01:26;5.80;;;4.40;;
14092;SDS011;7123;49.468;10.992;2023-04-06T06:03:53;7.47;;;4.80;;
14092;SDS011;7123;49.468;10.992;2023-04-06T06:06:20;5.03;;;4.53;;
14092;SDS011;7123;49.468;10.992;2023-04-06T06:08:46;6.63;;;4.40;;
14092;SDS011;7123;49.468;10.992;2023-04-06T06:11:13;7.37;;;4.33;;
14092;SDS011;7123;49.468;10.992;2023-04-06T06:13:40;8.03;;;4.60;;
14092;SDS011;7123;49.468;10.992;2023-04-06T06:16:06;5.37;;;4.67;;
14092;SDS011;7123;49.468;10.992;2023-04-06T06:18:33;10.30;;;4.77;;
14092;SDS011;7123;49.468;10.992;2023-04-06T06:21:00;6.67;;;4.80;;
14092;SDS011;7123;49.468;10.992;2023-04-06T06:23:27;8.00;;;5.00;;
14092;SDS011;7123;49.468;10.992;2023-04-06T06:25:54;6.43;;;4.60;;
14092;SDS011;7123;49.468;10.992;2023-04-06T06:28:22;7.03;;;4.60;;
14092;SDS011;7123;49.468;10.992;2023-04-06T06:30:51;8.93;;;4.90;;
14092;SDS011;7123;49.468;10.992;2023-04-06T06:33:17;6.17;;;4.63;;
14092;SDS011;7123;49.468;10.992;2023-04-06T06:35:44;6.83;;;4.93;;
14092;SDS011;7123;49.468;10.992;2023-04-06T06:38:11;8.43;;;5.23;;
14092;SDS011;7123;49.468;10.992;2023-04-06T06:40:38;8.53;;;5.07;;
14092;SDS011;7123;49.468;10.992;2023-04-06T06:43:05;7.60;;;5.57;;
14092;SDS011;7123;49.468;10.992;2023-04-06T06:45:32;8.97;;;4.63;;
14092;SDS011;7123;49.468;10.992;2023-04-06T06:47:59;8.23;;;4.93;;
14092;SDS011;7123;49.468;10.992;2023-04-06T06:50:26;6.47;;;4.53;;
14092;SDS011;7123;49.468;10.992;2023-04-06T06:52:53;6.60;;;5.03;;
14092;SDS011;7123;49.468;10.992;2023-04-06T06:55:19;7.67;;;5.07;;
14092;SDS011;7123;49.468;10.992;2023-04-06T06:57:46;4.77;;;4.20;;
14092;SDS011;7123;49.468;10.992;2023-04-06T07:00:13;7.07;;;5.33;;
14092;SDS011;7123;49.468;10.992;2023-04-06T07:02:40;6.33;;;5.03;;
14092;SDS011;7123;49.468;10.992;2023-04-06T07:05:07;6.23;;;4.50;;
14092;SDS011;7123;49.468;10.992;2023-04-06T07:07:51;8.13;;;4.97;;
14092;SDS011;7123;49.468;10.992;2023-04-06T07:10:18;8.80;;;5.00;;
14092;SDS011;7123;49.468;10.992;2023-04-06T07:12:45;6.97;;;4.87;;
14092;SDS011;7123;49.468;10.992;2023-04-06T07:15:12;8.40;;;5.00;;
14092;SDS011;7123;49.468;10.992;2023-04-06T07:17:39;8.33;;;5.00;;
14092;SDS011;7123;49.468;10.992;2023-04-06T07:20:07;10.77;;;5.20;;
14092;SDS011;7123;49.468;10.992;2023-04-06T07:22:34;6.53;;;4.97;;
14092;SDS011;7123;49.468;10.992;2023-04-06T07:25:01;7.47;;;4.87;;
14092;SDS011;7123;49.468;10.992;2023-04-06T07:27:28;8.07;;;4.60;;
14092;SDS011;7123;49.468;10.992;2023-04-06T07:29:55;7.33;;;5.03;;
14092;SDS011;7123;49.468;10.992;2023-04-06T07:32:21;13.00;;;5.07;;
14092;SDS011;7123;49.468;10.992;2023-04-06T07:34:48;7.07;;;4.73;;
14092;SDS011;7123;49.468;10.992;2023-04-06T07:37:16;7.40;;;4.67;;
14092;SDS011;7123;49.468;10.992;2023-04-06T07:39:42;7.30;;;5.13;;
14092;SDS011;7123;49.468;10.992;2023-04-06T07:42:09;8.77;;;5.03;;
14092;SDS011;7123;49.468;10.992;2023-04-06T07:44:36;7.50;;;5.07;;
14092;SDS011;7123;49.468;10.992;2023-04-06T07:47:03;9.10;;;5.03;;
14092;SDS011;7123;49.468;10.992;2023-04-06T07:49:29;8.87;;;4.43;;
14092;SDS011;7123;49.468;10.992;2023-04-06T07:51:58;10.37;;;5.17;;
14092;SDS011;7123;49.468;10.992;2023-04-06T07:54:24;7.67;;;5.47;;
14092;SDS011;7123;49.468;10.992;2023-04-06T07:56:51;6.87;;;4.60;;
14092;SDS011;7123;49.468;10.992;2023-04-06T07:59:18;8.67;;;5.57;;
14092;SDS011;7123;49.468;10.992;2023-04-06T08:01:45;7.80;;;5.47;;
14092;SDS011;7123;49.468;10.992;2023-04-06T08:04:11;6.20;;;4.87;;
14092;SDS011;7123;49.468;10.992;2023-04-06T08:06:38;7.17;;;5.57;;
14092;SDS011;7123;49.468;10.992;2023-04-06T08:09:07;7.20;;;5.30;;
14092;SDS011;7123;49.468;10.992;2023-04-06T08:11:33;7.33;;;4.90;;
14092;SDS011;7123;49.468;10.992;2023-04-06T08:14:00;6.50;;;5.20;;
14092;SDS011;7123;49.468;10.992;2023-04-06T08:16:27;6.70;;;5.17;;
14092;SDS011;7123;49.468;10.992;2023-04-06T08:18:53;8.77;;;5.13;;
14092;SDS011;7123;49.468;10.992;2023-04-06T08:21:20;5.43;;;4.90;;
14092;SDS011;7123;49.468;10.992;2023-04-06T08:23:48;11.20;;;5.73;;
14092;SDS011;7123;49.468;10.992;2023-04-06T08:26:14;6.93;;;5.00;;
14092;SDS011;7123;49.468;10.992;2023-04-06T08:28:41;11.13;;;5.33;;
14092;SDS011;7123;49.468;10.992;2023-04-06T08:31:12;7.17;;;5.37;;
14092;SDS011;7123;49.468;10.992;2023-04-06T08:33:38;11.80;;;5.30;;
14092;SDS011;7123;49.468;10.992;2023-04-06T08:36:07;9.07;;;5.80;;
14092;SDS011;7123;49.468;10.992;2023-04-06T08:38:35;8.87;;;5.90;;
14092;SDS011;7123;49.468;10.992;2023-04-06T08:41:08;10.93;;;5.87;;
14092;SDS011;7123;49.468;10.992;2023-04-06T08:43:37;9.50;;;5.77;;
14092;SDS011;7123;49.468;10.992;2023-04-06T08:46:34;8.00;;;6.20;;
14092;SDS011;7123;49.468;10.992;2023-04-06T08:49:02;9.10;;;6.03;;
14092;SDS011;7123;49.468;10.992;2023-04-06T08:51:29;8.47;;;5.57;;
14092;SDS011;7123;49.468;10.992;2023-04-06T08:53:57;9.60;;;6.50;;
14092;SDS011;7123;49.468;10.992;2023-04-06T08:56:25;11.73;;;6.47;;
14092;SDS011;7123;49.468;10.992;2023-04-06T08:58:53;8.67;;;5.80;;
14092;SDS011;7123;49.468;10.992;2023-04-06T09:01:22;6.23;;;5.37;;
14092;SDS011;7123;49.468;10.992;2023-04-06T09:03:57;6.73;;;5.57;;
14092;SDS011;7123;49.468;10.992;2023-04-06T09:06:26;8.67;;;5.73;;
14092;SDS011;7123;49.468;10.992;2023-04-06T09:08:53;9.07;;;5.53;;
14092;SDS011;7123;49.468;10.992;2023-04-06T09:11:21;9.10;;;5.20;;
14092;SDS011;7123;49.468;10.992;2023-04-06T09:13:48;7.37;;;5.80;;
14092;SDS011;7123;49.468;10.992;2023-04-06T09:16:24;8.47;;;5.80;;
14092;SDS011;7123;49.468;10.992;2023-04-06T09:18:51;8.03;;;5.73;;
14092;SDS011;7123;49.468;10.992;2023-04-06T09:21:18;7.63;;;5.73;;
14092;SDS011;7123;49.468;10.992;2023-04-06T09:23:59;7.90;;;5.60;;
14092;SDS011;7123;49.468;10.992;2023-04-06T09:26:27;10.13;;;6.97;;
14092;SDS011;7123;49.468;10.992;2023-04-06T09:28:54;10.27;;;7.30;;
14092;SDS011;7123;49.468;10.992;2023-04-06T09:31:28;7.57;;;5.77;;
14092;SDS011;7123;49.468;10.992;2023-04-06T09:33:59;8.17;;;5.33;;
14092;SDS011;7123;49.468;10.992;2023-04-06T09:36:45;6.23;;;5.50;;
14092;SDS011;7123;49.468;10.992;2023-04-06T09:39:12;8.33;;;6.17;;
14092;SDS011;7123;49.468;10.992;2023-04-06T09:41:39;15.10;;;7.30;;
14092;SDS011;7123;49.468;10.992;2023-04-06T09:44:12;7.83;;;6.50;;
14092;SDS011;7123;49.468;10.992;2023-04-06T09:46:40;8.70;;;6.37;;
14092;SDS011;7123;49.468;10.992;2023-04-06T09:49:28;7.43;;;5.50;;
14092;SDS011;7123;49.468;10.992;2023-04-06T09:52:01;7.37;;;6.40;;
14092;SDS011;7123;49.468;10.992;2023-04-06T09:54:30;7.77;;;5.90;;
14092;SDS011;7123;49.468;10.992;2023-04-06T09:57:00;7.83;;;6.30;;
14092;SDS011;7123;49.468;10.992;2023-04-06T09:59:44;8.80;;;6.20;;
14092;SDS011;7123;49.468;10.992;2023-04-06T10:02:40;6.10;;;5.40;;
14092;SDS011;7123;49.468;10.992;2023-04-06T10:07:39;8.40;;;6.33;;
14092;SDS011;7123;49.468;10.992;2023-04-06T10:10:24;7.67;;;5.70;;
14092;SDS011;7123;49.468;10.992;2023-04-06T10:12:51;7.90;;;6.30;;
14092;SDS011;7123;49.468;10.992;2023-04-06T10:15:18;8.73;;;7.67;;
14092;SDS011;7123;49.468;10.992;2023-04-06T10:17:48;9.60;;;7.30;;
14092;SDS011;7123;49.468;10.992;2023-04-06T10:20:21;13.13;;;7.90;;
14092;SDS011;7123;49.468;10.992;2023-04-06T10:22:55;7.90;;;5.80;;
14092;SDS011;7123;49.468;10.992;2023-04-06T10:25:33;7.40;;;5.20;;
14092;SDS011;7123;49.468;10.992;2023-04-06T10:28:06;10.27;;;6.20;;
14092;SDS011;7123;49.468;10.992;2023-04-06T10:30:35;7.40;;;6.17;;
14092;SDS011;7123;49.468;10.992;2023-04-06T10:33:17;8.80;;;7.20;;
14092;SDS011;7123;49.468;10.992;2023-04-06T10:35:45;10.20;;;7.30;;
14092;SDS011;7123;49.468;10.992;2023-04-06T10:38:12;11.23;;;8.10;;
14092;SDS011;7123;49.468;10.992;2023-04-06T10:40:41;8.90;;;7.83;;
14092;SDS011;7123;49.468;10.992;2023-04-06T10:43:19;9.30;;;7.47;;
14092;SDS011;7123;49.468;10.992;2023-04-06T10:45:57;8.23;;;7.17;;
14092;SDS011;7123;49.468;10.992;2023-04-06T10:48:35;9.90;;;7.87;;
14092;SDS011;7123;49.468;10.992;2023-04-06T10:51:10;11.13;;;7.87;;
14092;SDS011;7123;49.468;10.992;2023-04-06T10:53:38;7.90;;;6.80;;
14092;SDS011;7123;49.468;10.992;2023-04-06T10:56:11;9.67;;;7.10;;
14092;SDS011;7123;49.468;10.992;2023-04-06T10:58:45;8.37;;;7.43;;
14092;SDS011;7123;49.468;10.992;2023-04-06T11:01:17;6.77;;;6.00;;
14092;SDS011;7123;49.468;10.992;2023-04-06T11:03:49;7.47;;;6.10;;
14092;SDS011;7123;49.468;10.992;2023-04-06T11:06:24;9.13;;;6.77;;
14092;SDS011;7123;49.468;10.992;2023-04-06T11:08:53;7.97;;;6.30;;
14092;SDS011;7123;49.468;10.992;2023-04-06T11:11:21;9.27;;;6.00;;
14092;SDS011;7123;49.468;10.992;2023-04-06T11:13:56;7.33;;;6.00;;
14092;SDS011;7123;49.468;10.992;2023-04-06T11:16:24;8.50;;;6.83;;
14092;SDS011;7123;49.468;10.992;2023-04-06T11:19:10;8.83;;;6.97;;
14092;SDS011;7123;49.468;10.992;2023-04-06T11:21:42;7.43;;;6.13;;
14092;SDS011;7123;49.468;10.992;2023-04-06T11:24:19;7.00;;;6.13;;
14092;SDS011;7123;49.468;10.992;2023-04-06T11:26:52;7.47;;;5.60;;
14092;SDS011;7123;49.468;10.992;2023-04-06T11:29:26;7.57;;;5.10;;
14092;SDS011;7123;49.468;10.992;2023-04-06T11:32:05;9.57;;;6.20;;
14092;SDS011;7123;49.468;10.992;2023-04-06T11:34:39;6.37;;;5.77;;
14092;SDS011;7123;49.468;10.992;2023-04-06T11:37:07;5.50;;;5.00;;
14092;SDS011;7123;49.468;10.992;2023-04-06T11:39:48;7.77;;;5.33;;
14092;SDS011;7123;49.468;10.992;2023-04-06T11:42:27;8.13;;;5.90;;
14092;SDS011;7123;49.468;10.992;2023-04-06T11:44:56;7.20;;;6.50;;
14092;SDS011;7123;49.468;10.992;2023-04-06T11:47:34;9.17;;;5.50;;
14092;SDS011;7123;49.468;10.992;2023-04-06T11:50:07;10.47;;;6.13;;
14092;SDS011;7123;49.468;10.992;2023-04-06T11:52:39;8.77;;;6.67;;
14092;SDS011;7123;49.468;10.992;2023-04-06T11:55:11;8.93;;;7.10;;
14092;SDS011;7123;49.468;10.992;2023-04-06T11:57:45;11.10;;;7.23;;
14092;SDS011;7123;49.468;10.992;2023-04-06T12:00:12;8.73;;;6.90;;
14092;SDS011;7123;49.468;10.992;2023-04-06T12:02:39;8.10;;;7.03;;
14092;SDS011;7123;49.468;10.992;2023-04-06T12:05:11;9.13;;;7.00;;
14092;SDS011;7123;49.468;10.992;2023-04-06T12:07:38;8.50;;;7.40;;
14092;SDS011;7123;49.468;10.992;2023-04-06T12:10:09;8.77;;;5.83;;
14092;SDS011;7123;49.468;10.992;2023-04-06T12:12:36;6.60;;;5.90;;
14092;SDS011;7123;49.468;10.992;2023-04-06T12:15:03;6.83;;;6.20;;
14092;SDS011;7123;49.468;10.992;2023-04-06T12:17:31;9.03;;;6.07;;
14092;SDS011;7123;49.468;10.992;2023-04-06T12:19:58;6.80;;;5.30;;
14092;SDS011;7123;49.468;10.992;2023-04-06T12:22:34;6.87;;;5.87;;
14092;SDS011;7123;49.468;10.992;2023-04-06T12:25:02;7.13;;;5.63;;
14092;SDS011;7123;49.468;10.992;2023-04-06T12:27:29;6.70;;;6.00;;
14092;SDS011;7123;49.468;10.992;2023-04-06T12:29:56;9.77;;;5.50;;
14092;SDS011;7123;49.468;10.992;2023-04-06T12:32:23;8.53;;;6.50;;
14092;SDS011;7123;49.468;10.992;2023-04-06T12:34:52;6.47;;;5.77;;
14092;SDS011;7123;49.468;10.992;2023-04-06T12:37:19;12.20;;;7.30;;
14092;SDS011;7123;49.468;10.992;2023-04-06T12:39:46;7.27;;;6.50;;
14092;SDS011;7123;49.468;10.992;2023-04-06T12:42:13;9.20;;;6.97;;
14092;SDS011;7123;49.468;10.992;2023-04-06T12:44:40;9.07;;;7.07;;
14092;SDS011;7123;49.468;10.992;2023-04-06T12:47:08;9.03;;;6.17;;
14092;SDS011;7123;49.468;10.992;2023-04-06T12:49:37;10.90;;;6.93;;
14092;SDS011;7123;49.468;10.992;2023-04-06T12:52:04;8.73;;;7.60;;
14092;SDS011;7123;49.468;10.992;2023-04-06T12:54:31;7.77;;;6.00;;
14092;SDS011;7123;49.468;10.992;2023-04-06T12:56:58;6.87;;;5.63;;
14092;SDS011;7123;49.468;10.992;2023-04-06T12:59:25;7.70;;;5.67;;
14092;SDS011;7123;49.468;10.992;2023-04-06T13:01:54;8.57;;;5.87;;
14092;SDS011;7123;49.468;10.992;2023-04-06T13:04:21;6.23;;;5.63;;
14092;SDS011;7123;49.468;10.992;2023-04-06T13:06:48;7.67;;;6.10;;
14092;SDS011;7123;49.468;10.992;2023-04-06T13:09:15;9.27;;;6.90;;
14092;SDS011;7123;49.468;10.992;2023-04-06T13:11:41;8.20;;;7.40;;
14092;SDS011;7123;49.468;10.992;2023-04-06T13:14:08;7.97;;;6.87;;
14092;SDS011;7123;49.468;10.992;2023-04-06T13:16:38;9.33;;;6.93;;
14092;SDS011;7123;49.468;10.992;2023-04-06T13:19:04;8.13;;;6.00;;
14092;SDS011;7123;49.468;10.992;2023-04-06T13:21:31;8.27;;;7.17;;
14092;SDS011;7123;49.468;10.992;2023-04-06T13:23:58;10.50;;;7.77;;
14092;SDS011;7123;49.468;10.992;2023-04-06T13:26:26;9.40;;;7.60;;
14092;SDS011;7123;49.468;10.992;2023-04-06T13:28:52;8.23;;;7.30;;
14092;SDS011;7123;49.468;10.992;2023-04-06T13:31:19;8.40;;;7.40;;
14092;SDS011;7123;49.468;10.992;2023-04-06T13:33:46;9.50;;;7.70;;
14092;SDS011;7123;49.468;10.992;2023-04-06T13:36:12;8.27;;;6.27;;
14092;SDS011;7123;49.468;10.992;2023-04-06T13:38:43;6.77;;;6.17;;
14092;SDS011;7123;49.468;10.992;2023-04-06T13:41:16;6.50;;;5.87;;
14092;SDS011;7123;49.468;10.992;2023-04-06T13:43:47;11.07;;;6.90;;
14092;SDS011;7123;49.468;10.992;2023-04-06T13:46:14;7.23;;;6.53;;
14092;SDS011;7123;49.468;10.992;2023-04-06T13:48:41;7.13;;;6.43;;
14092;SDS011;7123;49.468;10.992;2023-04-06T13:51:12;6.90;;;6.20;;
14092;SDS011;7123;49.468;10.992;2023-04-06T13:53:39;10.10;;;7.10;;
14092;SDS011;7123;49.468;10.992;2023-04-06T13:56:07;6.70;;;5.77;;
14092;SDS011;7123;49.468;10.992;2023-04-06T13:58:34;6.67;;;6.07;;
14092;SDS011;7123;49.468;10.992;2023-04-06T14:01:03;9.63;;;6.60;;
14092;SDS011;7123;49.468;10.992;2023-04-06T14:03:32;7.03;;;6.33;;
14092;SDS011;7123;49.468;10.992;2023-04-06T14:05:59;7.07;;;6.37;;
14092;SDS011;7123;49.468;10.992;2023-04-06T14:08:34;6.83;;;6.13;;
14092;SDS011;7123;49.468;10.992;2023-04-06T14:11:01;6.83;;;5.97;;
14092;SDS011;7123;49.468;10.992;2023-04-06T14:13:28;7.10;;;6.20;;
14092;SDS011;7123;49.468;10.992;2023-04-06T14:15:55;6.47;;;5.60;;
14092;SDS011;7123;49.468;10.992;2023-04-06T14:18:22;6.33;;;5.73;;
14092;SDS011;7123;49.468;10.992;2023-04-06T14:20:55;6.43;;;5.67;;
14092;SDS011;7123;49.468;10.992;2023-04-06T14:23:22;5.80;;;5.27;;
14092;SDS011;7123;49.468;10.992;2023-04-06T14:25:49;6.13;;;5.53;;
14092;SDS011;7123;49.468;10.992;2023-04-06T14:28:16;6.70;;;6.00;;
14092;SDS011;7123;49.468;10.992;2023-04-06T14:30:43;5.87;;;5.30;;
14092;SDS011;7123;49.468;10.992;2023-04-06T14:33:10;6.27;;;5.67;;
14092;SDS011;7123;49.468;10.992;2023-04-06T14:35:40;6.20;;;5.70;;
14092;SDS011;7123;49.468;10.992;2023-04-06T14:38:07;6.67;;;6.07;;
14092;SDS011;7123;49.468;10.992;2023-04-06T14:40:36;6.00;;;5.50;;
14092;SDS011;7123;49.468;10.992;2023-04-06T14:43:03;5.03;;;4.53;;
14092;SDS011;7123;49.468;10.992;2023-04-06T14:45:32;5.80;;;5.30;;
14092;SDS011;7123;49.468;10.992;2023-04-06T14:47:59;7.23;;;5.23;;
14092;SDS011;7123;49.468;10.992;2023-04-06T14:50:27;10.27;;;7.50;;
14092;SDS011;7123;49.468;10.992;2023-04-06T14:52:53;8.27;;;6.83;;
14092;SDS011;7123;49.468;10.992;2023-04-06T14:55:20;8.07;;;7.27;;